sensor_id;sensor_type;location;lat;lon;timestamp;pressure;altitude;pressure_sealevel;temperature;humidity
48555;BME280;34336;48.270;16.716;2023-04-08T00:00:51;109325.25;;;18.16;100.00
48555;BME280;34336;48.270;16.716;2023-04-08T00:03:19;109325.25;;;18.16;100.00
48555;BME280;34336;48.270;16.716;2023-04-08T00:05:46;109325.25;;;18.16;100.00
48555;BME280;34336;48.270;16.716;2023-04-08T00:08:12;109325.25;;;18.16;100.00
48555;BME280;34336;48.270;16.716;2023-04-08T00:10:39;109325.25;;;18.16;100.00
48555;BME280;34336;48.270;16.716;2023-04-08T00:13:06;109325.25;;;18.16;100.00
48555;BME280;34336;48.270;16.716;2023-04-08T00:15:32;109325.25;;;18.16;100.00
48555;BME280;34336;48.270;16.716;2023-04-08T00:17:59;109325.25;;;18.16;100.00
48555;BME280;34336;48.270;16.716;2023-04-08T00:20:26;109325.25;;;18.16;100.00
48555;BME280;34336;48.270;16.716;2023-04-08T00:22:53;109325.25;;;18.16;100.00
48555;BME280;34336;48.270;16.716;2023-04-08T00:25:19;109325.25;;;18.16;100.00
48555;BME280;34336;48.270;16.716;2023-04-08T00:27:49;109325.25;;;18.16;100.00
48555;BME280;34336;48.270;16.716;2023-04-08T00:30:16;109325.25;;;18.16;100.00
48555;BME280;34336;48.270;16.716;2023-04-08T00:32:44;109325.25;;;18.16;100.00
48555;BME280;34336;48.270;16.716;2023-04-08T00:35:12;109325.25;;;18.16;100.00
48555;BME280;34336;48.270;16.716;2023-04-08T00:37:39;109325.25;;;18.16;100.00
48555;BME280;34336;48.270;16.716;2023-04-08T00:40:06;109325.25;;;18.16;100.00
48555;BME280;34336;48.270;16.716;2023-04-08T00:42:33;109325.25;;;18.16;100.00
48555;BME280;34336;48.270;16.716;2023-04-08T00:45:00;109325.25;;;18.16;100.00
48555;BME280;34336;48.270;16.716;2023-04-08T00:47:28;109325.25;;;18.16;100.00
48555;BME280;34336;48.270;16.716;2023-04-08T00:49:55;109325.25;;;18.16;100.00
48555;BME280;34336;48.270;16.716;2023-04-08T00:52:22;109325.25;;;18.16;100.00
48555;BME280;34336;48.270;16.716;2023-04-08T00:54:48;109325.25;;;18.16;100.00
48555;BME280;34336;48.270;16.716;2023-04-08T00:57:15;109325.25;;;18.16;100.00
48555;BME280;34336;48.270;16.716;2023-04-08T00:59:41;109325.25;;;18.16;100.00
48555;BME280;34336;48.270;16.716;2023-04-08T01:04:42;109325.25;;;18.16;100.00
48555;BME280;34336;48.270;16.716;2023-04-08T01:09:40;109325.25;;;18.16;100.00
48555;BME280;34336;48.270;16.716;2023-04-08T01:12:10;109325.25;;;18.16;100.00
48555;BME280;34336;48.270;16.716;2023-04-08T01:14:38;109325.25;;;18.16;100.00
48555;BME280;34336;48.270;16.716;2023-04-08T01:17:07;109325.25;;;18.16;100.00
48555;BME280;34336;48.270;16.716;2023-04-08T01:19:37;109325.25;;;18.16;100.00
48555;BME280;34336;48.270;16.716;2023-04-08T01:22:27;109325.25;;;18.16;100.00
48555;BME280;34336;48.270;16.716;2023-04-08T01:24:51;109325.25;;;18.16;100.00
48555;BME280;34336;48.270;16.716;2023-04-08T01:27:22;109325.25;;;18.16;100.00
48555;BME280;34336;48.270;16.716;2023-04-08T01:29:49;109325.25;;;18.16;100.00
48555;BME280;34336;48.270;16.716;2023-04-08T01:32:16;109325.25;;;18.16;100.00
48555;BME280;34336;48.270;16.716;2023-04-08T01:34:43;109325.25;;;18.16;100.00
48555;BME280;34336;48.270;16.716;2023-04-08T01:37:10;109325.25;;;18.16;100.00
48555;BME280;34336;48.270;16.716;2023-04-08T01:39:37;109325.25;;;18.16;100.00
48555;BME280;34336;48.270;16.716;2023-04-08T01:42:05;109325.25;;;18.16;100.00
48555;BME280;34336;48.270;16.716;2023-04-08T01:44:33;109325.25;;;18.16;100.00
48555;BME280;34336;48.270;16.716;2023-04-08T01:47:01;109325.25;;;18.16;100.00
48555;BME280;34336;48.270;16.716;2023-04-08T01:49:28;109325.25;;;18.16;100.00
48555;BME280;34336;48.270;16.716;2023-04-08T01:51:55;109325.25;;;18.16;100.00
48555;BME280;34336;48.270;16.716;2023-04-08T01:54:24;109325.25;;;18.16;100.00
48555;BME280;34336;48.270;16.716;2023-04-08T01:56:50;109325.25;;;18.16;100.00
48555;BME280;34336;48.270;16.716;2023-04-08T01:59:19;109325.25;;;18.16;100.00
48555;BME280;34336;48.270;16.716;2023-04-08T02:01:47;109325.25;;;18.16;100.00
48555;BME280;34336;48.270;16.716;2023-04-08T02:04:14;109325.25;;;18.16;100.00
48555;BME280;34336;48.270;16.716;2023-04-08T02:06:43;109325.25;;;18.16;100.00
48555;BME280;34336;48.270;16.716;2023-04-08T02:09:10;109325.25;;;18.16;100.00
48555;BME280;34336;48.270;16.716;2023-04-08T02:11:36;109325.25;;;18.16;100.00
48555;BME280;34336;48.270;16.716;2023-04-08T02:14:03;109325.25;;;18.16;100.00
48555;BME280;34336;48.270;16.716;2023-04-08T02:21:48;109325.25;;;18.16;100.00
48555;BME280;34336;48.270;16.716;2023-04-08T02:24:17;109325.25;;;18.16;100.00
48555;BME280;34336;48.270;16.716;2023-04-08T02:26:44;109325.25;;;18.16;100.00
48555;BME280;34336;48.270;16.716;2023-04-08T02:29:13;109325.25;;;18.16;100.00
48555;BME280;34336;48.270;16.716;2023-04-08T02:31:41;109325.25;;;18.16;100.00
48555;BME280;34336;48.270;16.716;2023-04-08T02:34:09;109325.25;;;18.16;100.00
48555;BME280;34336;48.270;16.716;2023-04-08T02:36:36;109325.25;;;18.16;100.00
48555;BME280;34336;48.270;16.716;2023-04-08T02:39:05;109325.25;;;18.16;100.00
48555;BME280;34336;48.270;16.716;2023-04-08T02:41:32;109325.25;;;18.16;100.00
48555;BME280;34336;48.270;16.716;2023-04-08T02:43:58;109325.25;;;18.16;100.00
48555;BME280;34336;48.270;16.716;2023-04-08T02:46:25;109325.25;;;18.16;100.00
48555;BME280;34336;48.270;16.716;2023-04-08T02:48:52;109325.25;;;18.16;100.00
48555;BME280;34336;48.270;16.716;2023-04-08T02:51:18;109325.25;;;18.16;100.00
48555;BME280;34336;48.270;16.716;2023-04-08T02:53:45;109325.25;;;18.16;100.00
48555;BME280;34336;48.270;16.716;2023-04-08T02:56:12;109325.25;;;18.16;100.00
48555;BME280;34336;48.270;16.716;2023-04-08T02:58:38;109325.25;;;18.16;100.00
48555;BME280;34336;48.270;16.716;2023-04-08T03:01:05;109325.25;;;18.16;100.00
48555;BME280;34336;48.270;16.716;2023-04-08T03:03:32;109325.25;;;18.16;100.00
48555;BME280;34336;48.270;16.716;2023-04-08T03:05:59;109325.25;;;18.16;100.00
48555;BME280;34336;48.270;16.716;2023-04-08T03:08:26;109325.25;;;18.16;100.00
48555;BME280;34336;48.270;16.716;2023-04-08T03:10:52;109325.25;;;18.16;100.00
48555;BME280;34336;48.270;16.716;2023-04-08T03:13:19;109325.25;;;18.16;100.00
48555;BME280;34336;48.270;16.716;2023-04-08T03:15:46;109325.25;;;18.16;100.00
48555;BME280;34336;48.270;16.716;2023-04-08T03:18:12;109325.25;;;18.16;100.00
48555;BME280;34336;48.270;16.716;2023-04-08T03:20:39;109325.25;;;18.16;100.00
48555;BME280;34336;48.270;16.716;2023-04-08T03:23:06;109325.25;;;18.16;100.00
48555;BME280;34336;48.270;16.716;2023-04-08T03:25:32;109325.25;;;18.16;100.00
48555;BME280;34336;48.270;16.716;2023-04-08T03:27:59;109325.25;;;18.16;100.00
48555;BME280;34336;48.270;16.716;2023-04-08T03:30:26;109325.25;;;18.16;100.00
48555;BME280;34336;48.270;16.716;2023-04-08T03:32:55;109325.25;;;18.16;100.00
48555;BME280;34336;48.270;16.716;2023-04-08T03:35:22;109325.25;;;18.16;100.00
48555;BME280;34336;48.270;16.716;2023-04-08T03:37:48;109325.25;;;18.16;100.00
48555;BME280;34336;48.270;16.716;2023-04-08T03:40:15;109325.25;;;18.16;100.00
48555;BME280;34336;48.270;16.716;2023-04-08T03:42:42;109325.25;;;18.16;100.00
48555;BME280;34336;48.270;16.716;2023-04-08T03:45:08;109325.25;;;18.16;100.00
48555;BME280;34336;48.270;16.716;2023-04-08T03:47:35;109325.25;;;18.16;100.00
48555;BME280;34336;48.270;16.716;2023-04-08T03:50:02;109325.25;;;18.16;100.00
48555;BME280;34336;48.270;16.716;2023-04-08T03:52:28;109325.25;;;18.16;100.00
48555;BME280;34336;48.270;16.716;2023-04-08T03:54:55;109325.25;;;18.16;100.00
48555;BME280;34336;48.270;16.716;2023-04-08T03:57:22;109325.25;;;18.16;100.00
48555;BME280;34336;48.270;16.716;2023-04-08T03:59:48;109325.25;;;18.16;100.00
48555;BME280;34336;48.270;16.716;2023-04-08T04:02:15;109325.25;;;18.16;100.00
48555;BME280;34336;48.270;16.716;2023-04-08T04:04:42;109325.25;;;18.16;100.00
48555;BME280;34336;48.270;16.716;2023-04-08T04:07:08;109325.25;;;18.16;100.00
48555;BME280;34336;48.270;16.716;2023-04-08T04:09:35;109325.25;;;18.16;100.00
48555;BME280;34336;48.270;16.716;2023-04-08T04:12:01;109325.25;;;18.16;100.00
48555;BME280;34336;48.270;16.716;2023-04-08T04:14:28;109325.25;;;18.16;100.00
48555;BME280;34336;48.270;16.716;2023-04-08T04:16:55;109325.25;;;18.16;100.00
48555;BME280;34336;48.270;16.716;2023-04-08T04:19:21;109325.25;;;18.16;100.00
48555;BME280;34336;48.270;16.716;2023-04-08T04:21:48;109325.25;;;18.16;100.00
48555;BME280;34336;48.270;16.716;2023-04-08T04:24:14;109325.25;;;18.16;100.00
48555;BME280;34336;48.270;16.716;2023-04-08T04:26:41;109325.25;;;18.16;100.00
48555;BME280;34336;48.270;16.716;2023-04-08T04:29:08;109325.25;;;18.16;100.00
48555;BME280;34336;48.270;16.716;2023-04-08T04:31:34;109325.25;;;18.16;100.00
48555;BME280;34336;48.270;16.716;2023-04-08T04:34:01;109325.25;;;18.16;100.00
48555;BME280;34336;48.270;16.716;2023-04-08T04:36:28;109325.25;;;18.16;100.00
48555;BME280;34336;48.270;16.716;2023-04-08T04:38:54;109325.25;;;18.16;100.00
48555;BME280;34336;48.270;16.716;2023-04-08T04:41:22;109325.25;;;18.16;100.00
48555;BME280;34336;48.270;16.716;2023-04-08T04:43:48;109325.25;;;18.16;100.00
48555;BME280;34336;48.270;16.716;2023-04-08T04:46:16;109325.25;;;18.16;100.00
48555;BME280;34336;48.270;16.716;2023-04-08T04:48:42;109325.25;;;18.16;100.00
48555;BME280;34336;48.270;16.716;2023-04-08T04:51:09;109325.25;;;18.16;100.00
48555;BME280;34336;48.270;16.716;2023-04-08T04:53:36;109325.25;;;18.16;100.00
48555;BME280;34336;48.270;16.716;2023-04-08T04:56:02;109325.25;;;18.16;100.00
48555;BME280;34336;48.270;16.716;2023-04-08T04:58:29;109325.25;;;18.16;100.00
48555;BME280;34336;48.270;16.716;2023-04-08T05:00:56;109325.25;;;18.16;100.00
48555;BME280;34336;48.270;16.716;2023-04-08T05:03:23;109325.25;;;18.16;100.00
48555;BME280;34336;48.270;16.716;2023-04-08T05:05:53;109325.25;;;18.16;100.00
48555;BME280;34336;48.270;16.716;2023-04-08T05:08:19;109325.25;;;18.16;100.00
48555;BME280;34336;48.270;16.716;2023-04-08T05:10:46;109325.25;;;18.16;100.00
48555;BME280;34336;48.270;16.716;2023-04-08T05:13:15;109325.25;;;18.16;100.00
48555;BME280;34336;48.270;16.716;2023-04-08T05:15:42;109325.25;;;18.16;100.00
48555;BME280;34336;48.270;16.716;2023-04-08T05:18:11;109325.25;;;18.16;100.00
48555;BME280;34336;48.270;16.716;2023-04-08T05:20:37;109325.25;;;18.16;100.00
48555;BME280;34336;48.270;16.716;2023-04-08T05:23:05;109325.25;;;18.16;100.00
48555;BME280;34336;48.270;16.716;2023-04-08T05:25:32;109325.25;;;18.16;100.00
48555;BME280;34336;48.270;16.716;2023-04-08T05:27:59;109325.25;;;18.16;100.00
48555;BME280;34336;48.270;16.716;2023-04-08T05:30:25;109325.25;;;18.16;100.00
48555;BME280;34336;48.270;16.716;2023-04-08T05:32:52;109325.25;;;18.16;100.00
48555;BME280;34336;48.270;16.716;2023-04-08T05:35:19;109325.25;;;18.16;100.00
48555;BME280;34336;48.270;16.716;2023-04-08T05:37:45;109325.25;;;18.16;100.00
48555;BME280;34336;48.270;16.716;2023-04-08T05:40:12;109325.25;;;18.16;100.00
48555;BME280;34336;48.270;16.716;2023-04-08T05:42:38;109325.25;;;18.16;100.00
48555;BME280;34336;48.270;16.716;2023-04-08T05:45:07;109325.25;;;18.16;100.00
48555;BME280;34336;48.270;16.716;2023-04-08T05:47:34;109325.25;;;18.16;100.00
48555;BME280;34336;48.270;16.716;2023-04-08T05:50:01;109325.25;;;18.16;100.00
48555;BME280;34336;48.270;16.716;2023-04-08T05:52:27;109325.25;;;18.16;100.00
48555;BME280;34336;48.270;16.716;2023-04-08T05:54:54;109325.25;;;18.16;100.00
48555;BME280;34336;48.270;16.716;2023-04-08T05:57:21;109325.25;;;18.16;100.00
48555;BME280;34336;48.270;16.716;2023-04-08T05:59:47;109325.25;;;18.16;100.00
48555;BME280;34336;48.270;16.716;2023-04-08T06:02:14;109325.25;;;18.16;100.00
48555;BME280;34336;48.270;16.716;2023-04-08T06:04:41;109325.25;;;18.16;100.00
48555;BME280;34336;48.270;16.716;2023-04-08T06:07:08;109325.25;;;18.16;100.00
48555;BME280;34336;48.270;16.716;2023-04-08T06:09:34;109325.25;;;18.16;100.00
48555;BME280;34336;48.270;16.716;2023-04-08T06:12:02;109325.25;;;18.16;100.00
48555;BME280;34336;48.270;16.716;2023-04-08T06:14:29;109325.25;;;18.16;100.00
48555;BME280;34336;48.270;16.716;2023-04-08T06:16:55;109325.25;;;18.16;100.00
48555;BME280;34336;48.270;16.716;2023-04-08T06:19:23;109325.25;;;18.16;100.00
48555;BME280;34336;48.270;16.716;2023-04-08T06:21:50;109325.25;;;18.16;100.00
48555;BME280;34336;48.270;16.716;2023-04-08T06:24:16;109325.25;;;18.16;100.00
48555;BME280;34336;48.270;16.716;2023-04-08T06:26:43;109325.25;;;18.16;100.00
48555;BME280;34336;48.270;16.716;2023-04-08T06:29:10;109325.25;;;18.16;100.00
48555;BME280;34336;48.270;16.716;2023-04-08T06:31:36;109325.25;;;18.16;100.00
48555;BME280;34336;48.270;16.716;2023-04-08T06:34:03;109325.25;;;18.16;100.00
48555;BME280;34336;48.270;16.716;2023-04-08T06:36:30;109325.25;;;18.16;100.00
48555;BME280;34336;48.270;16.716;2023-04-08T06:38:56;109325.25;;;18.16;100.00
48555;BME280;34336;48.270;16.716;2023-04-08T06:41:23;109325.25;;;18.16;100.00
48555;BME280;34336;48.270;16.716;2023-04-08T06:43:50;109325.25;;;18.16;100.00
48555;BME280;34336;48.270;16.716;2023-04-08T06:46:16;109325.25;;;18.16;100.00
48555;BME280;34336;48.270;16.716;2023-04-08T06:48:43;109325.25;;;18.16;100.00
48555;BME280;34336;48.270;16.716;2023-04-08T06:51:09;109325.25;;;18.16;100.00
48555;BME280;34336;48.270;16.716;2023-04-08T06:53:36;109325.25;;;18.16;100.00
48555;BME280;34336;48.270;16.716;2023-04-08T06:56:03;109325.25;;;18.16;100.00
48555;BME280;34336;48.270;16.716;2023-04-08T06:58:30;109325.25;;;18.16;100.00
48555;BME280;34336;48.270;16.716;2023-04-08T07:00:58;109325.25;;;18.16;100.00
48555;BME280;34336;48.270;16.716;2023-04-08T07:03:24;109325.25;;;18.16;100.00
48555;BME280;34336;48.270;16.716;2023-04-08T07:05:52;109325.25;;;18.16;100.00
48555;BME280;34336;48.270;16.716;2023-04-08T07:08:18;109325.25;;;18.16;100.00
48555;BME280;34336;48.270;16.716;2023-04-08T07:10:45;109325.25;;;18.16;100.00
48555;BME280;34336;48.270;16.716;2023-04-08T07:13:12;109325.25;;;18.16;100.00
48555;BME280;34336;48.270;16.716;2023-04-08T07:15:39;109325.25;;;18.16;100.00
48555;BME280;34336;48.270;16.716;2023-04-08T07:18:06;109325.25;;;18.16;100.00
48555;BME280;34336;48.270;16.716;2023-04-08T07:20:33;109325.25;;;18.16;100.00
48555;BME280;34336;48.270;16.716;2023-04-08T07:23:03;109325.25;;;18.16;100.00
48555;BME280;34336;48.270;16.716;2023-04-08T07:25:32;109325.25;;;18.16;100.00
48555;BME280;34336;48.270;16.716;2023-04-08T07:27:58;109325.25;;;18.16;99.29
48555;BME280;34336;48.270;16.716;2023-04-08T07:30:25;109325.25;;;18.16;98.66
48555;BME280;34336;48.270;16.716;2023-04-08T07:32:52;109325.25;;;18.16;98.73
48555;BME280;34336;48.270;16.716;2023-04-08T07:35:23;109325.25;;;18.16;99.58
48555;BME280;34336;48.270;16.716;2023-04-08T07:37:50;109325.25;;;18.16;99.41
48555;BME280;34336;48.270;16.716;2023-04-08T07:40:18;109325.25;;;18.16;98.65
48555;BME280;34336;48.270;16.716;2023-04-08T07:42:46;109325.25;;;18.16;97.36
48555;BME280;34336;48.270;16.716;2023-04-08T07:45:13;109325.25;;;18.16;97.02
48555;BME280;34336;48.270;16.716;2023-04-08T07:47:40;109325.25;;;18.16;95.88
48555;BME280;34336;48.270;16.716;2023-04-08T07:50:07;109325.25;;;18.16;95.44
48555;BME280;34336;48.270;16.716;2023-04-08T07:52:34;109325.25;;;18.16;95.49
48555;BME280;34336;48.270;16.716;2023-04-08T07:55:00;109325.25;;;18.16;95.73
48555;BME280;34336;48.270;16.716;2023-04-08T07:57:27;109325.25;;;18.16;95.12
48555;BME280;34336;48.270;16.716;2023-04-08T07:59:54;109325.25;;;18.16;94.52
48555;BME280;34336;48.270;16.716;2023-04-08T08:02:21;109325.25;;;18.16;93.35
48555;BME280;34336;48.270;16.716;2023-04-08T08:04:48;109325.25;;;18.16;92.35
48555;BME280;34336;48.270;16.716;2023-04-08T08:07:15;109325.25;;;18.16;91.50
48555;BME280;34336;48.270;16.716;2023-04-08T08:09:42;109325.25;;;18.16;90.59
48555;BME280;34336;48.270;16.716;2023-04-08T08:12:08;109325.25;;;18.16;90.42
48555;BME280;34336;48.270;16.716;2023-04-08T08:14:35;109325.25;;;18.16;91.58
48555;BME280;34336;48.270;16.716;2023-04-08T08:17:02;109325.25;;;18.16;91.59
48555;BME280;34336;48.270;16.716;2023-04-08T08:19:29;109325.25;;;18.16;90.56
48555;BME280;34336;48.270;16.716;2023-04-08T08:21:55;109325.25;;;18.16;91.15
48555;BME280;34336;48.270;16.716;2023-04-08T08:24:22;109325.25;;;18.16;91.61
48555;BME280;34336;48.270;16.716;2023-04-08T08:26:48;109325.25;;;18.16;90.66
48555;BME280;34336;48.270;16.716;2023-04-08T08:29:15;109325.25;;;18.16;90.92
48555;BME280;34336;48.270;16.716;2023-04-08T08:31:42;109325.25;;;18.16;92.23
48555;BME280;34336;48.270;16.716;2023-04-08T08:34:08;109325.25;;;18.16;92.97
48555;BME280;34336;48.270;16.716;2023-04-08T08:36:35;109325.25;;;18.16;91.19
48555;BME280;34336;48.270;16.716;2023-04-08T08:39:02;109325.25;;;18.16;91.34
48555;BME280;34336;48.270;16.716;2023-04-08T08:41:32;109325.25;;;18.16;90.03
48555;BME280;34336;48.270;16.716;2023-04-08T08:43:58;109325.25;;;18.16;89.39
48555;BME280;34336;48.270;16.716;2023-04-08T08:46:25;109325.25;;;18.16;89.01
48555;BME280;34336;48.270;16.716;2023-04-08T08:48:52;109325.25;;;18.16;89.30
48555;BME280;34336;48.270;16.716;2023-04-08T08:51:19;109325.25;;;18.16;91.34
48555;BME280;34336;48.270;16.716;2023-04-08T08:53:46;109325.25;;;18.16;89.85
48555;BME280;34336;48.270;16.716;2023-04-08T08:56:12;109325.25;;;18.16;88.06
48555;BME280;34336;48.270;16.716;2023-04-08T08:58:44;109325.25;;;18.16;86.72
48555;BME280;34336;48.270;16.716;2023-04-08T09:04:07;109325.25;;;18.16;88.15
48555;BME280;34336;48.270;16.716;2023-04-08T09:06:35;109325.25;;;18.16;85.74
48555;BME280;34336;48.270;16.716;2023-04-08T09:09:02;109325.25;;;18.16;86.19
48555;BME280;34336;48.270;16.716;2023-04-08T09:11:31;109325.25;;;18.16;85.32
48555;BME280;34336;48.270;16.716;2023-04-08T09:13:59;109325.25;;;18.16;88.41
48555;BME280;34336;48.270;16.716;2023-04-08T09:16:26;109325.25;;;18.16;89.22
48555;BME280;34336;48.270;16.716;2023-04-08T09:18:53;109325.25;;;18.16;88.68
48555;BME280;34336;48.270;16.716;2023-04-08T09:21:21;109325.25;;;18.16;87.88
48555;BME280;34336;48.270;16.716;2023-04-08T09:23:48;109325.25;;;18.16;84.63
48555;BME280;34336;48.270;16.716;2023-04-08T09:26:17;109325.25;;;18.16;82.44
48555;BME280;34336;48.270;16.716;2023-04-08T09:28:56;109325.25;;;18.16;80.03
48555;BME280;34336;48.270;16.716;2023-04-08T09:31:27;109325.25;;;18.16;82.12
48555;BME280;34336;48.270;16.716;2023-04-08T09:33:58;109325.25;;;18.16;81.49
48555;BME280;34336;48.270;16.716;2023-04-08T09:36:25;109325.25;;;18.16;81.82
48555;BME280;34336;48.270;16.716;2023-04-08T09:38:53;109325.25;;;18.16;81.23
48555;BME280;34336;48.270;16.716;2023-04-08T09:41:20;109325.25;;;18.16;81.05
48555;BME280;34336;48.270;16.716;2023-04-08T09:43:49;109325.25;;;18.16;80.68
48555;BME280;34336;48.270;16.716;2023-04-08T09:46:18;109325.25;;;18.16;79.56
48555;BME280;34336;48.270;16.716;2023-04-08T09:48:57;109325.25;;;18.16;78.38
48555;BME280;34336;48.270;16.716;2023-04-08T09:51:26;109325.25;;;18.16;80.07
48555;BME280;34336;48.270;16.716;2023-04-08T09:53:55;109325.25;;;18.16;79.01
48555;BME280;34336;48.270;16.716;2023-04-08T09:56:26;109325.25;;;18.16;81.53
48555;BME280;34336;48.270;16.716;2023-04-08T09:59:01;109325.25;;;18.16;79.68
48555;BME280;34336;48.270;16.716;2023-04-08T10:01:37;109325.25;;;18.16;80.35
48555;BME280;34336;48.270;16.716;2023-04-08T10:04:07;109325.25;;;18.16;83.21
48555;BME280;34336;48.270;16.716;2023-04-08T10:06:35;109325.25;;;18.16;81.47
48555;BME280;34336;48.270;16.716;2023-04-08T10:09:02;109325.25;;;18.16;81.31
48555;BME280;34336;48.270;16.716;2023-04-08T10:11:29;109325.25;;;18.16;81.09
48555;BME280;34336;48.270;16.716;2023-04-08T10:13:56;109325.25;;;18.16;80.04
48555;BME280;34336;48.270;16.716;2023-04-08T10:16:23;109325.25;;;18.16;79.14
48555;BME280;34336;48.270;16.716;2023-04-08T10:18:53;109325.25;;;18.16;77.45
48555;BME280;34336;48.270;16.716;2023-04-08T10:23:59;109325.25;;;18.16;79.17
48555;BME280;34336;48.270;16.716;2023-04-08T10:26:33;109325.25;;;18.16;80.61
48555;BME280;34336;48.270;16.716;2023-04-08T10:31:49;109325.25;;;18.16;78.04
48555;BME280;34336;48.270;16.716;2023-04-08T10:34:23;109325.25;;;18.16;78.07
48555;BME280;34336;48.270;16.716;2023-04-08T10:36:52;109325.25;;;18.16;77.01
48555;BME280;34336;48.270;16.716;2023-04-08T10:39:20;109325.25;;;18.16;77.07
48555;BME280;34336;48.270;16.716;2023-04-08T10:41:48;109325.25;;;18.16;79.02
48555;BME280;34336;48.270;16.716;2023-04-08T10:44:15;109325.25;;;18.16;78.87
48555;BME280;34336;48.270;16.716;2023-04-08T10:46:43;109325.25;;;18.16;80.18
48555;BME280;34336;48.270;16.716;2023-04-08T10:49:11;109325.25;;;18.16;78.35
48555;BME280;34336;48.270;16.716;2023-04-08T10:51:38;109325.25;;;18.16;79.11
48555;BME280;34336;48.270;16.716;2023-04-08T10:54:09;109325.25;;;18.16;78.17
48555;BME280;34336;48.270;16.716;2023-04-08T10:56:36;109325.25;;;18.16;79.49
48555;BME280;34336;48.270;16.716;2023-04-08T10:59:09;109325.25;;;18.16;78.75
48555;BME280;34336;48.270;16.716;2023-04-08T11:01:36;109325.25;;;18.16;78.21
48555;BME280;34336;48.270;16.716;2023-04-08T11:04:14;109325.25;;;18.16;77.30
48555;BME280;34336;48.270;16.716;2023-04-08T11:06:42;109325.25;;;18.16;78.88
48555;BME280;34336;48.270;16.716;2023-04-08T11:09:09;109325.25;;;18.16;78.67
48555;BME280;34336;48.270;16.716;2023-04-08T11:11:36;109325.25;;;18.16;77.19
48555;BME280;34336;48.270;16.716;2023-04-08T11:14:03;109325.25;;;18.16;78.48
48555;BME280;34336;48.270;16.716;2023-04-08T11:16:30;109325.25;;;18.16;78.19
48555;BME280;34336;48.270;16.716;2023-04-08T11:18:58;109325.25;;;18.16;75.92
48555;BME280;34336;48.270;16.716;2023-04-08T11:21:25;109325.25;;;18.16;76.70
48555;BME280;34336;48.270;16.716;2023-04-08T11:23:54;109325.25;;;18.16;75.87
48555;BME280;34336;48.270;16.716;2023-04-08T11:26:22;109325.25;;;18.16;78.45
48555;BME280;34336;48.270;16.716;2023-04-08T11:28:48;109325.25;;;18.16;77.61
48555;BME280;34336;48.270;16.716;2023-04-08T11:31:17;109325.25;;;18.16;76.58
48555;BME280;34336;48.270;16.716;2023-04-08T11:33:48;109325.25;;;18.16;76.32
48555;BME280;34336;48.270;16.716;2023-04-08T11:36:18;109325.25;;;18.16;74.77
48555;BME280;34336;48.270;16.716;2023-04-08T11:38:47;109325.25;;;18.16;77.40
48555;BME280;34336;48.270;16.716;2023-04-08T11:41:13;109325.25;;;18.16;75.84
48555;BME280;34336;48.270;16.716;2023-04-08T11:43:51;109325.25;;;18.16;74.47
48555;BME280;34336;48.270;16.716;2023-04-08T11:46:18;109325.25;;;18.16;76.02
48555;BME280;34336;48.270;16.716;2023-04-08T11:49:03;109325.25;;;18.16;74.61
48555;BME280;34336;48.270;16.716;2023-04-08T11:51:30;109325.25;;;18.16;74.57
48555;BME280;34336;48.270;16.716;2023-04-08T11:53:57;109325.25;;;18.16;73.71
48555;BME280;34336;48.270;16.716;2023-04-08T11:56:23;109325.25;;;18.16;74.63
48555;BME280;34336;48.270;16.716;2023-04-08T11:58:50;109325.25;;;18.16;74.46
48555;BME280;34336;48.270;16.716;2023-04-08T12:01:17;109325.25;;;18.16;72.78
48555;BME280;34336;48.270;16.716;2023-04-08T12:03:54;109325.25;;;18.16;74.85
48555;BME280;34336;48.270;16.716;2023-04-08T12:06:22;109325.25;;;18.16;73.91
48555;BME280;34336;48.270;16.716;2023-04-08T12:08:50;109325.25;;;18.16;75.66
48555;BME280;34336;48.270;16.716;2023-04-08T12:11:17;109325.25;;;18.16;71.38
48555;BME280;34336;48.270;16.716;2023-04-08T12:13:45;109325.25;;;18.16;72.57
48555;BME280;34336;48.270;16.716;2023-04-08T12:16:12;109325.25;;;18.16;74.94
48555;BME280;34336;48.270;16.716;2023-04-08T12:18:39;109325.25;;;18.16;74.66
48555;BME280;34336;48.270;16.716;2023-04-08T12:21:06;109325.25;;;18.16;73.49
48555;BME280;34336;48.270;16.716;2023-04-08T12:23:33;109325.25;;;18.16;72.83
48555;BME280;34336;48.270;16.716;2023-04-08T12:25:59;109325.25;;;18.16;70.09
48555;BME280;34336;48.270;16.716;2023-04-08T12:28:26;109325.25;;;18.16;69.88
48555;BME280;34336;48.270;16.716;2023-04-08T12:30:52;109325.25;;;18.16;72.46
48555;BME280;34336;48.270;16.716;2023-04-08T12:33:19;109325.25;;;18.16;73.28
48555;BME280;34336;48.270;16.716;2023-04-08T12:35:46;109325.25;;;18.16;72.34
48555;BME280;34336;48.270;16.716;2023-04-08T12:38:12;109325.25;;;18.16;73.88
48555;BME280;34336;48.270;16.716;2023-04-08T12:40:39;109325.25;;;18.16;72.76
48555;BME280;34336;48.270;16.716;2023-04-08T12:43:06;109325.25;;;18.16;72.38
48555;BME280;34336;48.270;16.716;2023-04-08T12:45:32;109325.25;;;18.16;71.48
48555;BME280;34336;48.270;16.716;2023-04-08T12:47:59;109325.25;;;18.16;73.10
48555;BME280;34336;48.270;16.716;2023-04-08T12:50:26;109325.25;;;18.16;73.36
48555;BME280;34336;48.270;16.716;2023-04-08T12:52:52;109325.25;;;18.16;73.62
48555;BME280;34336;48.270;16.716;2023-04-08T12:55:19;109325.25;;;18.16;74.42